Time;durP1;ratioP1;P1;durP2;ratioP2;P2;SDS_P1;SDS_P2;PMS_P1;PMS_P2;Temp;Humidity;BMP_temperature;BMP_pressure;BME280_temperature;BME280_humidity;BME280_pressure;Samples;Min_cycle;Max_cycle;Signal;HPM_P1;HPM_P2
2021/01/26 00:00:45;;;;;;;8.95;5.68;;;3.00;99.90;;;;;;5073975;28;20230;-73
2021/01/26 00:03:11;;;;;;;8.20;4.15;;;3.00;99.90;;;;;;5074100;28;20227;-72
2021/01/26 00:05:38;;;;;;;6.82;4.40;;;3.10;99.90;;;;;;5073787;28;20263;-72
2021/01/26 00:08:05;;;;;;;8.55;4.20;;;3.00;99.90;;;;;;5073370;28;20603;-72
2021/01/26 00:10:32;;;;;;;8.57;3.88;;;3.00;99.90;;;;;;5073771;28;20202;-71
2021/01/26 00:12:58;;;;;;;6.93;3.63;;;3.00;99.90;;;;;;5073979;28;20254;-71
2021/01/26 00:15:25;;;;;;;7.45;4.50;;;2.80;99.90;;;;;;5073864;28;20720;-73
2021/01/26 00:17:51;;;;;;;7.25;4.30;;;2.80;99.90;;;;;;5073411;28;20601;-73
2021/01/26 00:20:18;;;;;;;7.03;4.20;;;2.90;99.90;;;;;;5073474;28;20285;-73
2021/01/26 00:22:45;;;;;;;7.97;4.47;;;2.90;99.90;;;;;;5073439;28;20223;-74
2021/01/26 00:25:16;;;;;;;8.88;4.45;;;2.90;99.90;;;;;;5073829;28;20241;-72
2021/01/26 00:27:43;;;;;;;4.65;2.88;;;3.00;99.90;;;;;;5073266;28;20310;-74
2021/01/26 00:30:15;;;;;;;6.68;3.65;;;3.00;99.90;;;;;;5072584;28;20206;-74
2021/01/26 00:32:41;;;;;;;8.02;4.50;;;3.00;99.90;;;;;;5073350;28;20227;-74
2021/01/26 00:35:09;;;;;;;9.75;4.63;;;3.00;99.90;;;;;;5073577;28;20203;-73
2021/01/26 00:37:35;;;;;;;7.57;4.18;;;3.00;99.90;;;;;;5072741;28;20614;-74
2021/01/26 00:40:04;;;;;;;7.90;4.57;;;3.00;99.90;;;;;;5072885;28;20203;-77
2021/01/26 00:42:30;;;;;;;8.00;4.93;;;3.00;99.90;;;;;;5073167;28;20229;-72
2021/01/26 00:44:56;;;;;;;6.60;4.18;;;3.10;99.90;;;;;;5073450;28;20202;-74
2021/01/26 00:47:23;;;;;;;5.93;3.55;;;3.10;99.90;;;;;;5072681;28;20218;-75
2021/01/26 00:49:49;;;;;;;7.57;4.40;;;3.00;99.90;;;;;;5072817;28;20297;-74
2021/01/26 00:52:16;;;;;;;7.15;3.65;;;3.00;99.90;;;;;;5073034;28;20324;-75
2021/01/26 00:54:42;;;;;;;7.18;3.33;;;3.00;99.90;;;;;;5073503;28;20291;-75
2021/01/26 00:57:09;;;;;;;5.45;3.80;;;2.90;99.90;;;;;;5072774;28;20397;-74
2021/01/26 00:59:35;;;;;;;5.72;3.63;;;2.90;99.90;;;;;;5072724;28;20214;-74
2021/01/26 01:02:02;;;;;;;5.25;3.10;;;2.90;99.90;;;;;;5072476;28;20724;-74
2021/01/26 01:04:28;;;;;;;5.90;3.83;;;2.90;99.90;;;;;;5072893;28;20293;-74
2021/01/26 01:06:54;;;;;;;5.60;3.30;;;2.90;99.90;;;;;;5072614;28;20229;-74
2021/01/26 01:09:21;;;;;;;3.63;3.10;;;2.80;99.90;;;;;;5072648;28;20293;-74
2021/01/26 01:11:47;;;;;;;7.40;3.72;;;2.80;99.90;;;;;;5072646;28;20223;-75
2021/01/26 01:14:14;;;;;;;9.88;3.40;;;2.80;99.90;;;;;;5073008;28;20618;-73
2021/01/26 01:16:41;;;;;;;6.05;3.70;;;2.70;99.90;;;;;;5072438;28;20195;-75
2021/01/26 01:19:07;;;;;;;5.43;3.65;;;2.70;99.90;;;;;;5072272;28;20253;-74
2021/01/26 01:21:33;;;;;;;8.20;3.65;;;2.70;99.90;;;;;;5072517;28;20270;-74
2021/01/26 01:23:59;;;;;;;3.72;3.03;;;2.80;99.90;;;;;;5072787;28;20293;-74
2021/01/26 01:26:26;;;;;;;6.65;2.83;;;2.70;99.90;;;;;;5072182;28;20313;-72
2021/01/26 01:28:52;;;;;;;4.28;2.97;;;2.70;99.90;;;;;;5072314;28;20228;-74
2021/01/26 01:31:19;;;;;;;6.78;2.75;;;2.70;99.90;;;;;;5072203;28;20647;-74
2021/01/26 01:33:46;;;;;;;4.30;2.97;;;2.70;99.90;;;;;;5072428;28;20206;-74
2021/01/26 01:36:12;;;;;;;8.70;3.85;;;2.60;99.90;;;;;;5072531;28;20289;-73
2021/01/26 01:38:38;;;;;;;5.05;2.92;;;2.60;99.90;;;;;;5072307;28;20251;-74
2021/01/26 01:41:05;;;;;;;5.13;3.00;;;2.60;99.90;;;;;;5071961;28;20232;-74
2021/01/26 01:43:31;;;;;;;6.35;3.45;;;2.60;99.90;;;;;;5072492;28;20210;-74
2021/01/26 01:45:58;;;;;;;8.10;3.78;;;2.60;99.90;;;;;;5072122;28;20216;-74
2021/01/26 01:48:30;;;;;;;6.38;3.80;;;2.50;99.90;;;;;;5072009;28;20286;-74
2021/01/26 01:51:04;;;;;;;6.13;2.85;;;2.50;99.90;;;;;;5072288;28;20202;-74
2021/01/26 01:53:36;;;;;;;5.80;2.67;;;2.40;99.90;;;;;;5072498;28;20209;-74
2021/01/26 01:56:07;;;;;;;6.05;3.50;;;2.40;99.90;;;;;;5072217;28;20225;-75
2021/01/26 01:58:39;;;;;;;3.00;2.33;;;2.40;99.90;;;;;;5072011;28;20202;-73
2021/01/26 02:01:10;;;;;;;2.70;2.50;;;2.50;99.90;;;;;;5072043;28;20210;-74
2021/01/26 02:03:42;;;;;;;5.65;3.13;;;2.40;99.90;;;;;;5072517;28;20576;-74
2021/01/26 02:06:11;;;;;;;4.22;3.00;;;2.50;99.90;;;;;;5071819;28;20665;-73
2021/01/26 02:08:42;;;;;;;7.10;2.97;;;2.50;99.90;;;;;;5071721;28;20706;-75
2021/01/26 02:11:09;;;;;;;5.43;2.70;;;2.50;99.90;;;;;;5071665;28;20247;-74
2021/01/26 02:13:35;;;;;;;6.72;3.25;;;2.40;99.90;;;;;;5072333;28;20213;-73
2021/01/26 02:16:04;;;;;;;6.85;3.25;;;2.40;99.90;;;;;;5071756;28;20745;-73
2021/01/26 02:18:44;;;;;;;4.60;2.85;;;2.40;99.90;;;;;;5071809;28;20199;-73
2021/01/26 02:21:44;;;;;;;5.43;3.05;;;2.40;99.90;;;;;;5071896;28;20734;-76
2021/01/26 02:25:03;;;;;;;3.85;2.75;;;2.40;99.90;;;;;;5072408;28;20297;-76
2021/01/26 02:28:08;;;;;;;5.43;2.78;;;2.40;99.90;;;;;;5071542;28;20375;-76
2021/01/26 02:30:59;;;;;;;3.70;3.10;;;2.40;99.90;;;;;;5071830;28;20203;-77
2021/01/26 02:33:50;;;;;;;8.10;4.03;;;2.30;99.90;;;;;;5071997;28;20207;-76
2021/01/26 02:36:51;;;;;;;7.05;3.83;;;2.30;99.90;;;;;;5071626;28;20232;-78
2021/01/26 02:39:43;;;;;;;4.90;2.70;;;2.30;99.90;;;;;;5071795;28;20675;-75
2021/01/26 02:42:33;;;;;;;6.18;3.00;;;2.30;99.90;;;;;;5071643;28;20313;-75
2021/01/26 02:45:22;;;;;;;10.45;2.83;;;2.40;99.90;;;;;;5071930;28;20207;-74
2021/01/26 02:48:00;;;;;;;6.35;3.30;;;2.40;99.90;;;;;;5071509;28;20227;-75
2021/01/26 02:50:32;;;;;;;3.80;3.20;;;2.40;99.90;;;;;;5071494;28;20199;-74
2021/01/26 02:53:08;;;;;;;5.78;2.85;;;2.40;99.90;;;;;;5071798;28;20223;-75
2021/01/26 02:55:41;;;;;;;4.20;2.42;;;2.50;99.90;;;;;;5075327;28;20202;-74
2021/01/26 02:58:15;;;;;;;4.90;3.47;;;2.40;99.90;;;;;;5075243;28;20205;-74
2021/01/26 03:00:42;;;;;;;6.07;3.10;;;2.40;99.90;;;;;;5075067;28;20198;-75
2021/01/26 03:03:14;;;;;;;6.32;3.17;;;2.40;99.90;;;;;;5075019;28;20417;-75
2021/01/26 03:05:46;;;;;;;4.82;2.90;;;2.40;99.90;;;;;;5074984;28;20203;-77
2021/01/26 03:08:18;;;;;;;6.80;3.15;;;2.50;99.90;;;;;;5074656;28;20236;-75
2021/01/26 03:10:51;;;;;;;9.95;3.10;;;2.50;99.90;;;;;;5074859;28;20621;-75
2021/01/26 03:13:21;;;;;;;4.50;2.75;;;2.50;99.90;;;;;;5074989;28;20228;-75
2021/01/26 03:15:51;;;;;;;3.72;2.97;;;2.50;99.90;;;;;;5074800;28;20232;-75
2021/01/26 03:18:21;;;;;;;7.07;2.97;;;2.40;99.90;;;;;;5074755;28;20229;-75
2021/01/26 03:20:51;;;;;;;4.72;2.70;;;2.40;99.90;;;;;;5074481;28;20771;-75
2021/01/26 03:23:20;;;;;;;6.88;3.85;;;2.40;99.90;;;;;;5074951;28;20199;-76
2021/01/26 03:25:52;;;;;;;7.05;3.00;;;2.40;99.90;;;;;;5074751;28;20199;-75
2021/01/26 03:28:21;;;;;;;5.90;3.15;;;2.40;99.90;;;;;;5074094;28;20218;-75
2021/01/26 03:30:50;;;;;;;6.38;3.40;;;2.30;99.90;;;;;;5076222;28;20291;-76
2021/01/26 03:33:20;;;;;;;7.28;3.53;;;2.40;99.90;;;;;;5076541;28;20583;-77
2021/01/26 03:35:46;;;;;;;4.90;3.30;;;2.30;99.90;;;;;;5077575;28;20203;-77
2021/01/26 03:38:17;;;;;;;6.25;3.30;;;2.40;99.90;;;;;;5091435;28;20643;-77
2021/01/26 03:40:43;;;;;;;4.97;2.95;;;2.40;99.90;;;;;;5098000;28;20202;-78
2021/01/26 03:43:11;;;;;;;5.78;2.85;;;2.30;99.90;;;;;;5097191;28;20322;-78
2021/01/26 03:45:37;;;;;;;5.20;2.85;;;2.30;99.90;;;;;;5096282;28;20210;-78
2021/01/26 03:48:22;;;;;;;7.03;2.85;;;2.40;99.90;;;;;;5096665;28;20240;-78
2021/01/26 03:51:00;;;;;;;5.10;2.70;;;2.40;99.90;;;;;;5096237;28;20632;-78
2021/01/26 03:53:52;;;;;;;5.63;3.33;;;2.40;99.90;;;;;;5096445;28;20715;-78
2021/01/26 03:56:26;;;;;;;9.40;3.50;;;2.40;99.90;;;;;;5096124;28;20207;-78
2021/01/26 03:59:07;;;;;;;5.40;2.90;;;2.40;99.90;;;;;;5096429;28;20294;-78
2021/01/26 04:01:39;;;;;;;7.40;3.47;;;2.40;99.90;;;;;;5096467;28;20226;-78
2021/01/26 04:04:13;;;;;;;5.68;3.97;;;2.50;99.90;;;;;;5095619;28;20202;-78
2021/01/26 04:06:45;;;;;;;4.95;2.80;;;2.50;99.90;;;;;;5095827;28;20225;-78
2021/01/26 04:09:14;;;;;;;3.13;2.30;;;2.50;99.90;;;;;;5095929;28;20206;-78
2021/01/26 04:11:47;;;;;;;5.10;3.10;;;2.60;99.90;;;;;;5095957;28;20232;-78
2021/01/26 04:14:19;;;;;;;5.10;2.78;;;2.60;99.90;;;;;;5095862;28;20297;-78
2021/01/26 04:16:50;;;;;;;7.07;3.03;;;2.50;99.90;;;;;;5095815;28;20216;-79
2021/01/26 04:19:22;;;;;;;6.95;3.08;;;2.50;99.90;;;;;;5095964;28;20213;-78
2021/01/26 04:21:49;;;;;;;7.88;3.55;;;2.40;99.90;;;;;;5095863;28;20222;-78
2021/01/26 04:24:15;;;;;;;6.47;2.50;;;2.30;99.90;;;;;;5095552;28;20202;-78
2021/01/26 04:26:42;;;;;;;5.93;2.55;;;2.30;99.90;;;;;;5094880;28;20259;-77
2021/01/26 04:29:09;;;;;;;4.68;3.25;;;2.20;99.90;;;;;;5095449;28;20617;-78
2021/01/26 04:31:36;;;;;;;3.97;2.40;;;2.20;99.90;;;;;;5095604;28;20317;-78
2021/01/26 04:34:03;;;;;;;7.57;3.28;;;2.30;99.90;;;;;;5095784;28;20289;-78
2021/01/26 04:36:29;;;;;;;6.28;3.45;;;2.30;99.90;;;;;;5094967;28;20289;-78
2021/01/26 04:38:56;;;;;;;3.90;2.13;;;2.30;99.90;;;;;;5095994;28;20209;-78
2021/01/26 04:41:35;;;;;;;5.60;2.40;;;2.30;99.90;;;;;;5095850;28;20221;-77
2021/01/26 04:44:22;;;;;;;7.22;2.60;;;2.30;99.90;;;;;;5096678;28;20198;-78
2021/01/26 04:47:00;;;;;;;5.30;2.50;;;2.30;99.90;;;;;;5096205;28;20217;-78
2021/01/26 04:49:31;;;;;;;3.60;2.72;;;2.30;99.90;;;;;;5096657;28;20237;-78
2021/01/26 04:52:06;;;;;;;4.10;2.65;;;2.30;99.90;;;;;;5096454;28;20752;-78
2021/01/26 04:54:45;;;;;;;2.85;1.65;;;2.40;99.90;;;;;;5096093;28;20610;-78
2021/01/26 04:57:24;;;;;;;3.10;2.33;;;2.40;99.90;;;;;;5095736;28;20719;-78
2021/01/26 05:00:07;;;;;;;5.20;2.78;;;2.40;99.90;;;;;;5096174;28;20206;-77
2021/01/26 05:02:55;;;;;;;5.32;1.85;;;2.40;99.90;;;;;;5095680;28;20248;-78
2021/01/26 05:05:24;;;;;;;4.63;2.30;;;2.50;99.90;;;;;;5082565;28;20555;-77
2021/01/26 05:07:53;;;;;;;4.07;2.42;;;2.40;99.90;;;;;;5095491;28;20708;-78
2021/01/26 05:10:27;;;;;;;4.82;2.88;;;2.40;99.90;;;;;;5094798;28;20201;-78
2021/01/26 05:12:57;;;;;;;3.55;1.95;;;2.50;99.90;;;;;;5095458;28;20232;-77
2021/01/26 05:15:30;;;;;;;5.28;2.30;;;2.50;99.90;;;;;;5095490;28;20228;-78
2021/01/26 05:18:02;;;;;;;3.38;2.40;;;2.60;99.90;;;;;;5095017;28;20190;-78
2021/01/26 05:20:38;;;;;;;1.98;1.77;;;2.60;99.90;;;;;;5095844;28;20251;-78
2021/01/26 05:23:10;;;;;;;3.85;2.38;;;2.60;99.90;;;;;;5095331;28;20232;-78
2021/01/26 05:25:37;;;;;;;4.63;2.33;;;2.60;99.90;;;;;;5095522;28;20612;-78
2021/01/26 05:28:03;;;;;;;3.63;2.22;;;2.60;99.90;;;;;;5095209;28;20226;-78
2021/01/26 05:30:33;;;;;;;4.97;2.50;;;2.70;99.90;;;;;;5095637;28;20202;-78
2021/01/26 05:33:05;;;;;;;3.78;2.00;;;2.70;99.90;;;;;;5095529;28;20229;-78
2021/01/26 05:35:31;;;;;;;3.00;2.03;;;2.70;99.90;;;;;;5095107;28;20209;-78
2021/01/26 05:37:57;;;;;;;2.50;1.90;;;2.60;99.90;;;;;;5095072;28;20202;-78
2021/01/26 05:40:27;;;;;;;5.57;2.38;;;2.60;99.90;;;;;;5095082;28;20201;-78
2021/01/26 05:42:56;;;;;;;3.15;1.95;;;2.60;99.90;;;;;;5095200;28;20692;-78
2021/01/26 05:45:26;;;;;;;6.35;2.50;;;2.70;99.90;;;;;;5094803;28;20231;-78
2021/01/26 05:48:02;;;;;;;3.35;1.58;;;2.70;99.90;;;;;;5094180;28;20216;-78
2021/01/26 05:50:30;;;;;;;2.83;1.95;;;2.70;99.90;;;;;;5095175;28;20202;-78
2021/01/26 05:53:04;;;;;;;5.55;2.40;;;2.70;99.90;;;;;;5094968;28;20620;-78
2021/01/26 05:55:32;;;;;;;2.72;2.08;;;2.70;99.90;;;;;;5094903;28;20574;-78
2021/01/26 05:58:10;;;;;;;4.22;2.25;;;2.70;99.90;;;;;;5095351;28;20289;-78
2021/01/26 06:00:39;;;;;;;4.25;2.05;;;2.70;99.90;;;;;;5094876;28;20186;-78
2021/01/26 06:03:20;;;;;;;4.35;2.38;;;2.70;99.90;;;;;;5095289;28;20321;-78
2021/01/26 06:06:00;;;;;;;4.18;2.50;;;2.70;99.90;;;;;;5094713;28;20692;-78
2021/01/26 06:08:27;;;;;;;2.42;1.50;;;2.70;99.90;;;;;;5095347;28;20313;-78
2021/01/26 06:10:54;;;;;;;2.00;1.67;;;2.70;99.90;;;;;;5094463;28;20202;-79
2021/01/26 06:13:25;;;;;;;5.93;2.70;;;2.80;99.90;;;;;;5095064;28;20296;-78
2021/01/26 06:16:07;;;;;;;3.58;2.17;;;2.80;99.90;;;;;;5095033;28;20209;-78
2021/01/26 06:18:34;;;;;;;4.07;1.80;;;2.80;99.90;;;;;;5095277;28;20202;-78
2021/01/26 06:21:07;;;;;;;1.88;1.70;;;2.80;99.90;;;;;;5094770;28;20198;-78
2021/01/26 06:23:35;;;;;;;7.40;2.05;;;2.80;99.90;;;;;;5094858;28;20311;-78
2021/01/26 06:26:04;;;;;;;5.85;2.40;;;2.80;99.90;;;;;;5094587;28;20215;-78
2021/01/26 06:29:12;;;;;;;2.83;1.50;;;2.80;99.90;;;;;;5096387;28;20226;-78
2021/01/26 06:31:51;;;;;;;5.55;2.00;;;2.80;99.90;;;;;;5081652;28;20222;-78
2021/01/26 06:34:36;;;;;;;1.48;1.38;;;2.90;99.90;;;;;;5098800;28;20558;-78
2021/01/26 06:37:41;;;;;;;2.92;1.70;;;2.90;99.90;;;;;;5098991;28;20178;-78
2021/01/26 06:40:18;;;;;;;4.80;1.58;;;2.90;99.90;;;;;;5089030;28;20209;-78
2021/01/26 06:42:55;;;;;;;1.92;1.45;;;3.00;99.90;;;;;;5098943;28;20583;-78
2021/01/26 06:45:33;;;;;;;2.28;1.90;;;3.00;99.90;;;;;;5098953;28;20213;-78
2021/01/26 06:48:35;;;;;;;4.57;1.83;;;3.00;99.90;;;;;;5099786;28;20351;-78
2021/01/26 06:51:33;;;;;;;3.20;1.60;;;3.00;99.90;;;;;;5088143;28;20707;-78
2021/01/26 06:54:16;;;;;;;2.97;1.70;;;3.00;99.90;;;;;;5099377;28;20198;-78
2021/01/26 06:56:58;;;;;;;9.00;4.65;;;3.00;99.90;;;;;;5099304;28;20289;-79
2021/01/26 06:59:47;;;;;;;4.90;2.42;;;3.00;99.90;;;;;;5099256;28;20208;-79
2021/01/26 07:02:49;;;;;;;3.67;1.63;;;3.00;99.90;;;;;;5099783;28;20253;-78
2021/01/26 07:05:57;;;;;;;3.92;2.17;;;3.00;99.90;;;;;;5099837;28;20284;-79
2021/01/26 07:08:41;;;;;;;2.53;1.55;;;3.00;99.90;;;;;;5062723;28;20806;-78
2021/01/26 07:11:47;;;;;;;3.20;1.90;;;3.10;99.90;;;;;;5100494;28;20198;-79
2021/01/26 07:14:24;;;;;;;2.20;1.60;;;3.10;99.90;;;;;;5049061;28;20201;-79
2021/01/26 07:16:54;;;;;;;2.13;1.33;;;3.10;99.90;;;;;;5099297;28;20210;-79
2021/01/26 07:19:32;;;;;;;2.83;1.77;;;3.20;99.90;;;;;;5100324;28;20202;-78
2021/01/26 07:22:25;;;;;;;6.53;3.35;;;3.20;99.90;;;;;;5098953;28;20232;-79
2021/01/26 07:25:05;;;;;;;2.45;1.88;;;3.20;99.90;;;;;;5099156;28;20228;-78
2021/01/26 07:27:50;;;;;;;3.20;1.65;;;3.20;99.90;;;;;;5099318;28;20343;-79
2021/01/26 07:30:20;;;;;;;2.65;1.45;;;3.20;99.90;;;;;;5100480;28;20308;-79
2021/01/26 07:32:56;;;;;;;1.58;1.42;;;3.20;99.90;;;;;;5099481;28;20728;-79
2021/01/26 07:35:29;;;;;;;3.67;2.00;;;3.10;99.90;;;;;;5100554;28;20296;-79
2021/01/26 07:38:00;;;;;;;3.15;1.35;;;3.10;99.90;;;;;;5099199;28;20200;-78
2021/01/26 07:40:32;;;;;;;1.98;1.63;;;3.10;99.90;;;;;;5099180;28;20652;-79
2021/01/26 07:43:09;;;;;;;3.47;1.60;;;3.20;99.90;;;;;;5098876;28;20228;-79
2021/01/26 07:45:45;;;;;;;1.35;1.23;;;3.20;99.90;;;;;;5098797;28;20642;-80
2021/01/26 07:48:18;;;;;;;2.53;1.88;;;3.10;99.90;;;;;;5099240;28;20281;-79
2021/01/26 07:50:47;;;;;;;2.03;1.75;;;3.20;99.90;;;;;;5098385;28;20195;-79
2021/01/26 07:53:21;;;;;;;2.60;1.60;;;3.10;99.90;;;;;;5098311;28;20223;-78
2021/01/26 07:55:52;;;;;;;3.67;1.55;;;3.20;99.90;;;;;;5099809;28;20210;-79
2021/01/26 07:58:18;;;;;;;2.28;1.60;;;3.20;99.90;;;;;;5099622;28;20549;-78
2021/01/26 08:00:48;;;;;;;3.65;1.98;;;3.20;99.90;;;;;;5099373;28;20206;-78
2021/01/26 08:03:21;;;;;;;4.03;1.20;;;3.20;99.90;;;;;;5097274;28;20222;-78
2021/01/26 08:05:49;;;;;;;2.22;1.95;;;3.20;99.90;;;;;;5097128;28;20206;-78
2021/01/26 08:08:22;;;;;;;2.20;1.40;;;3.20;99.90;;;;;;5097451;28;20226;-78
2021/01/26 08:11:05;;;;;;;2.08;1.20;;;3.20;99.90;;;;;;5097259;28;20305;-78
2021/01/26 08:13:33;;;;;;;5.75;2.20;;;3.20;99.90;;;;;;5096980;28;20277;-78
2021/01/26 08:16:12;;;;;;;2.42;1.92;;;3.20;99.90;;;;;;5097103;28;20598;-78
2021/01/26 08:18:39;;;;;;;3.03;1.70;;;3.20;99.90;;;;;;5096981;28;20281;-79
2021/01/26 08:21:28;;;;;;;3.08;2.03;;;3.30;99.90;;;;;;5096884;28;20210;-79
2021/01/26 08:24:12;;;;;;;3.03;1.67;;;3.30;99.90;;;;;;5097160;28;20187;-78
2021/01/26 08:26:40;;;;;;;1.92;1.23;;;3.30;99.90;;;;;;5097075;28;20549;-78
2021/01/26 08:29:07;;;;;;;2.95;1.60;;;3.30;99.90;;;;;;5097004;28;20222;-78
2021/01/26 08:31:35;;;;;;;3.53;1.73;;;3.30;99.90;;;;;;5096655;28;20309;-78
2021/01/26 08:34:44;;;;;;;3.75;1.90;;;3.30;99.90;;;;;;5098047;28;20205;-78
2021/01/26 08:37:24;;;;;;;2.90;1.95;;;3.30;99.90;;;;;;5080855;28;20204;-78
2021/01/26 08:39:52;;;;;;;3.60;2.10;;;3.40;99.90;;;;;;5096788;28;20198;-78
2021/01/26 08:42:54;;;;;;;2.33;1.67;;;3.30;99.90;;;;;;5097315;28;20222;-78
2021/01/26 08:45:52;;;;;;;3.47;1.60;;;3.20;99.90;;;;;;5097245;28;20213;-77
2021/01/26 08:48:24;;;;;;;3.13;2.15;;;3.20;99.90;;;;;;5097745;28;20711;-77
2021/01/26 08:51:11;;;;;;;2.05;1.90;;;3.10;99.90;;;;;;5097190;28;20201;-77
2021/01/26 08:53:39;;;;;;;3.17;2.20;;;3.00;99.90;;;;;;5097907;28;20209;-77
2021/01/26 08:56:33;;;;;;;5.10;2.00;;;3.00;99.90;;;;;;5097983;28;20220;-77
2021/01/26 08:59:01;;;;;;;2.15;1.67;;;3.00;99.90;;;;;;5098671;28;20645;-77
2021/01/26 09:01:45;;;;;;;3.50;2.85;;;3.10;99.90;;;;;;5096760;28;20218;-78
2021/01/26 09:04:40;;;;;;;3.13;1.75;;;3.00;99.90;;;;;;5096988;28;20202;-80
2021/01/26 09:07:07;;;;;;;2.72;1.83;;;3.10;99.90;;;;;;5085576;28;20655;-75
2021/01/26 09:09:51;;;;;;;7.30;2.75;;;3.10;99.90;;;;;;5093817;28;20201;-75
2021/01/26 09:12:23;;;;;;;3.80;2.97;;;3.20;99.90;;;;;;5092678;28;20785;-73
2021/01/26 09:14:55;;;;;;;3.95;2.17;;;3.20;99.90;;;;;;5094564;28;20293;-77
2021/01/26 09:17:27;;;;;;;3.38;1.92;;;3.20;99.90;;;;;;5095351;28;20266;-81
2021/01/26 09:19:57;;;;;;;5.63;2.22;;;3.20;99.90;;;;;;5094908;28;20182;-80
2021/01/26 09:22:26;;;;;;;4.70;2.70;;;3.20;99.90;;;;;;5094215;28;20319;-78
2021/01/26 09:24:59;;;;;;;3.60;2.03;;;3.20;99.90;;;;;;5094618;28;20719;-78
2021/01/26 09:27:28;;;;;;;6.50;2.90;;;3.20;99.90;;;;;;5094353;28;20260;-81
2021/01/26 09:30:19;;;;;;;5.15;2.70;;;3.30;99.90;;;;;;5099880;28;20665;-83
2021/01/26 09:32:49;;;;;;;3.17;1.92;;;3.30;99.90;;;;;;5100607;28;20222;-83
2021/01/26 09:35:25;;;;;;;6.32;2.20;;;3.30;99.90;;;;;;5102319;28;20300;-84
2021/01/26 09:38:04;;;;;;;2.13;1.40;;;3.30;99.90;;;;;;5101684;28;20289;-83
2021/01/26 09:40:31;;;;;;;6.30;2.55;;;3.40;99.90;;;;;;5102498;28;20204;-84
2021/01/26 09:43:19;;;;;;;3.78;1.90;;;3.50;99.90;;;;;;5102229;28;20643;-84
2021/01/26 09:45:54;;;;;;;3.33;1.67;;;3.60;99.90;;;;;;5094069;28;20218;-76
2021/01/26 09:48:28;;;;;;;1.88;1.58;;;3.70;99.90;;;;;;5093930;28;20217;-76
2021/01/26 09:51:03;;;;;;;1.13;1.05;;;3.80;99.90;;;;;;5094176;28;20274;-76
2021/01/26 09:53:30;;;;;;;2.50;1.60;;;3.80;99.90;;;;;;5094625;28;20185;-76
2021/01/26 09:55:56;;;;;;;1.60;1.48;;;3.80;99.90;;;;;;5093756;28;20517;-76
2021/01/26 09:58:23;;;;;;;1.85;1.42;;;3.80;99.90;;;;;;5094077;28;20258;-75
2021/01/26 10:00:51;;;;;;;1.95;1.30;;;3.70;99.90;;;;;;5094241;28;20206;-75
2021/01/26 10:03:21;;;;;;;2.33;1.63;;;3.80;99.90;;;;;;5096496;28;20206;-75
2021/01/26 10:05:47;;;;;;;3.58;2.47;;;3.70;99.90;;;;;;5098231;28;20208;-76
2021/01/26 10:08:24;;;;;;;1.10;1.00;;;3.70;99.90;;;;;;5097810;28;20575;-75
2021/01/26 10:10:51;;;;;;;2.05;1.55;;;3.70;99.90;;;;;;5097795;28;20555;-75
2021/01/26 10:13:26;;;;;;;1.27;1.17;;;3.70;99.90;;;;;;5097796;28;20624;-75
2021/01/26 10:15:54;;;;;;;1.40;0.80;;;3.70;99.90;;;;;;5097425;28;20684;-75
2021/01/26 10:18:23;;;;;;;1.75;1.52;;;3.80;99.90;;;;;;5097627;28;20610;-75
2021/01/26 10:20:55;;;;;;;0.73;0.35;;;3.90;99.90;;;;;;5097535;28;20198;-75
2021/01/26 10:23:25;;;;;;;2.30;1.80;;;3.90;99.90;;;;;;5097365;28;20638;-75
2021/01/26 10:25:53;;;;;;;2.17;1.42;;;3.90;99.90;;;;;;5097369;28;20198;-75
2021/01/26 10:28:24;;;;;;;2.53;0.90;;;4.10;99.90;;;;;;5097217;28;20217;-75
2021/01/26 10:30:51;;;;;;;1.58;1.48;;;4.10;99.90;;;;;;5097431;28;20206;-75
2021/01/26 10:33:36;;;;;;;7.47;1.70;;;4.20;99.90;;;;;;5097304;28;20198;-75
2021/01/26 10:36:21;;;;;;;2.03;1.60;;;4.30;99.90;;;;;;5097233;28;20587;-75
2021/01/26 10:38:48;;;;;;;2.90;1.42;;;4.40;99.90;;;;;;5097080;28;20204;-75
2021/01/26 10:41:21;;;;;;;1.13;0.98;;;4.40;99.90;;;;;;5097109;28;20222;-75
2021/01/26 10:43:48;;;;;;;1.60;1.17;;;4.40;99.90;;;;;;5097197;28;20190;-75
2021/01/26 10:46:29;;;;;;;4.15;1.98;;;4.30;99.90;;;;;;5096930;28;20305;-75
2021/01/26 10:49:10;;;;;;;1.30;1.20;;;4.30;99.90;;;;;;5096961;28;20222;-75
2021/01/26 10:51:39;;;;;;;1.20;1.05;;;4.20;99.90;;;;;;5096727;28;20218;-75
2021/01/26 10:54:06;;;;;;;1.77;1.30;;;4.10;99.90;;;;;;5096904;28;20305;-75
2021/01/26 10:56:33;;;;;;;2.60;1.55;;;4.00;99.90;;;;;;5096763;28;20202;-76
2021/01/26 10:58:59;;;;;;;1.98;1.42;;;4.00;99.90;;;;;;5096950;28;20288;-75
2021/01/26 11:01:26;;;;;;;2.70;1.25;;;4.00;99.90;;;;;;5096779;28;20313;-75
2021/01/26 11:03:53;;;;;;;1.67;1.50;;;4.10;99.90;;;;;;5096539;28;20202;-75
2021/01/26 11:06:22;;;;;;;1.50;1.40;;;4.10;99.90;;;;;;5096474;28;20206;-76
2021/01/26 11:08:48;;;;;;;2.10;1.27;;;4.10;99.90;;;;;;5096601;28;20271;-75
2021/01/26 11:11:15;;;;;;;2.80;1.45;;;4.20;99.90;;;;;;5096585;28;20222;-75
2021/01/26 11:13:42;;;;;;;4.25;2.05;;;4.10;99.90;;;;;;5095770;28;20751;-75
2021/01/26 11:16:08;;;;;;;4.82;1.77;;;4.10;99.90;;;;;;5096205;28;20356;-75
2021/01/26 11:18:34;;;;;;;1.50;1.30;;;4.20;99.90;;;;;;5096420;28;20202;-75
2021/01/26 11:21:01;;;;;;;1.70;1.50;;;4.10;99.90;;;;;;5096395;28;20206;-75
2021/01/26 11:23:29;;;;;;;1.10;0.88;;;4.10;99.90;;;;;;5096371;28;20256;-75
2021/01/26 11:25:56;;;;;;;2.35;2.10;;;4.10;99.90;;;;;;5096151;28;20198;-75
2021/01/26 11:28:22;;;;;;;3.17;1.73;;;4.00;99.90;;;;;;5096219;28;20565;-75
2021/01/26 11:30:49;;;;;;;1.38;1.20;;;4.00;99.90;;;;;;5096123;28;20306;-75
2021/01/26 11:33:15;;;;;;;1.10;0.80;;;4.00;99.90;;;;;;5096177;28;20222;-75
2021/01/26 11:35:54;;;;;;;2.80;1.38;;;4.10;99.90;;;;;;5095905;28;20559;-75
2021/01/26 11:38:20;;;;;;;0.90;0.88;;;4.20;99.90;;;;;;5095773;28;20564;-75
2021/01/26 11:40:48;;;;;;;1.88;1.20;;;4.20;99.90;;;;;;5096059;28;20198;-75
2021/01/26 11:43:14;;;;;;;1.55;1.20;;;4.30;99.90;;;;;;5096069;28;20222;-75
2021/01/26 11:45:42;;;;;;;1.67;1.20;;;4.20;99.90;;;;;;5095514;28;20307;-75
2021/01/26 11:48:08;;;;;;;1.70;1.60;;;4.20;99.90;;;;;;5095761;28;20226;-75
2021/01/26 11:50:35;;;;;;;1.23;1.10;;;4.30;99.90;;;;;;5095626;28;20301;-75
2021/01/26 11:53:04;;;;;;;2.75;1.40;;;4.50;99.90;;;;;;5095526;28;20763;-75
2021/01/26 11:55:32;;;;;;;2.65;1.80;;;4.40;99.90;;;;;;5095611;28;20289;-76
2021/01/26 11:58:11;;;;;;;1.67;1.00;;;4.40;99.90;;;;;;5095905;28;20202;-75
2021/01/26 12:00:38;;;;;;;2.17;1.60;;;4.30;99.90;;;;;;5095907;28;20209;-75
2021/01/26 12:03:05;;;;;;;3.42;1.15;;;4.40;99.90;;;;;;5095311;28;20712;-75
2021/01/26 12:05:33;;;;;;;3.10;1.58;;;4.50;99.50;;;;;;5095375;28;20206;-74
2021/01/26 12:08:00;;;;;;;1.95;1.50;;;4.60;99.30;;;;;;5095256;28;20699;-75
2021/01/26 12:10:27;;;;;;;1.95;1.38;;;4.70;99.70;;;;;;5095324;28;20202;-75
2021/01/26 12:12:54;;;;;;;1.50;1.35;;;4.90;99.50;;;;;;5095379;28;20648;-75
2021/01/26 12:15:23;;;;;;;1.80;1.45;;;5.00;98.90;;;;;;5095303;28;20198;-75
2021/01/26 12:17:50;;;;;;;1.17;1.08;;;5.00;98.20;;;;;;5095148;28;20537;-75
2021/01/26 12:20:17;;;;;;;2.67;1.67;;;5.00;99.30;;;;;;5095318;28;20240;-75
2021/01/26 12:22:43;;;;;;;1.50;1.40;;;5.10;98.30;;;;;;5095196;28;20269;-75
2021/01/26 12:25:12;;;;;;;3.35;1.40;;;5.10;98.10;;;;;;5095129;28;20250;-75
2021/01/26 12:27:38;;;;;;;1.38;1.27;;;5.10;97.40;;;;;;5093860;28;20225;-74
2021/01/26 12:30:08;;;;;;;1.67;1.08;;;5.00;97.90;;;;;;5094979;28;20198;-75
2021/01/26 12:32:35;;;;;;;2.42;1.25;;;5.00;97.60;;;;;;5094800;28;20257;-75
2021/01/26 12:35:02;;;;;;;2.08;1.25;;;5.00;97.90;;;;;;5094771;28;20273;-75
2021/01/26 12:37:29;;;;;;;2.38;1.90;;;4.90;97.50;;;;;;5094788;28;20560;-75
2021/01/26 12:39:55;;;;;;;3.35;2.63;;;4.90;97.30;;;;;;5095003;28;20297;-75
2021/01/26 12:42:21;;;;;;;2.22;1.80;;;4.90;97.60;;;;;;5094695;28;20224;-75
2021/01/26 12:44:48;;;;;;;0.82;0.80;;;4.80;97.30;;;;;;5094859;28;20292;-75
2021/01/26 12:47:14;;;;;;;2.40;1.10;;;4.80;98.00;;;;;;5094637;28;20702;-75
2021/01/26 12:49:41;;;;;;;1.23;1.13;;;4.80;98.20;;;;;;5094746;28;20293;-75
2021/01/26 12:52:08;;;;;;;1.80;1.50;;;4.90;97.90;;;;;;5094852;28;20809;-75
2021/01/26 12:54:34;;;;;;;2.70;1.40;;;4.90;98.60;;;;;;5094359;28;20729;-75
2021/01/26 12:57:01;;;;;;;2.17;1.33;;;5.00;98.10;;;;;;5094285;28;20289;-75
2021/01/26 12:59:27;;;;;;;1.80;1.60;;;5.00;97.50;;;;;;5094509;28;20285;-75
2021/01/26 13:01:54;;;;;;;1.85;1.40;;;5.00;97.70;;;;;;5094495;28;20222;-75
2021/01/26 13:04:20;;;;;;;1.10;1.10;;;5.10;97.90;;;;;;5094667;28;20202;-75
2021/01/26 13:06:47;;;;;;;3.47;1.52;;;5.20;97.70;;;;;;5094102;28;20736;-75
2021/01/26 13:09:13;;;;;;;1.33;1.20;;;5.30;97.50;;;;;;5094407;28;20225;-75
2021/01/26 13:11:40;;;;;;;1.15;1.00;;;5.20;97.30;;;;;;5094332;28;20691;-75
2021/01/26 13:14:06;;;;;;;2.65;1.40;;;5.30;97.50;;;;;;5094507;28;20617;-75
2021/01/26 13:16:32;;;;;;;1.90;1.50;;;5.30;97.50;;;;;;5094226;28;20292;-75
2021/01/26 13:18:59;;;;;;;2.30;1.40;;;5.30;97.50;;;;;;5094410;28;20285;-75
2021/01/26 13:21:25;;;;;;;2.33;1.60;;;5.50;98.30;;;;;;5094353;28;20256;-76
2021/01/26 13:23:52;;;;;;;3.60;1.50;;;5.60;98.00;;;;;;5094568;28;20208;-75
2021/01/26 13:26:19;;;;;;;1.95;1.70;;;5.70;97.30;;;;;;5094092;28;20259;-75